sensor_id;sensor_type;location;lat;lon;timestamp;P1;durP1;ratioP1;P2;durP2;ratioP2
33287;SDS011;19657;50.452;30.372;2024-01-11T00:01:47;75.40;;;36.20;;
33287;SDS011;19657;50.452;30.372;2024-01-11T00:04:33;82.80;;;39.80;;
33287;SDS011;19657;50.452;30.372;2024-01-11T00:07:19;76.70;;;37.20;;
33287;SDS011;19657;50.452;30.372;2024-01-11T00:10:05;75.20;;;39.90;;
33287;SDS011;19657;50.452;30.372;2024-01-11T00:12:51;73.80;;;37.60;;
33287;SDS011;19657;50.452;30.372;2024-01-11T00:15:37;77.30;;;37.30;;
33287;SDS011;19657;50.452;30.372;2024-01-11T00:18:22;72.20;;;36.70;;
33287;SDS011;19657;50.452;30.372;2024-01-11T00:21:07;77.70;;;38.30;;
33287;SDS011;19657;50.452;30.372;2024-01-11T00:23:53;76.20;;;36.10;;
33287;SDS011;19657;50.452;30.372;2024-01-11T00:26:38;76.50;;;37.80;;
33287;SDS011;19657;50.452;30.372;2024-01-11T00:29:24;76.30;;;35.80;;
33287;SDS011;19657;50.452;30.372;2024-01-11T00:32:10;66.00;;;34.00;;
33287;SDS011;19657;50.452;30.372;2024-01-11T00:34:55;79.10;;;37.30;;
33287;SDS011;19657;50.452;30.372;2024-01-11T00:37:41;75.80;;;37.40;;
33287;SDS011;19657;50.452;30.372;2024-01-11T00:40:27;73.30;;;34.80;;
33287;SDS011;19657;50.452;30.372;2024-01-11T00:43:12;71.60;;;34.50;;
33287;SDS011;19657;50.452;30.372;2024-01-11T00:45:58;69.10;;;34.80;;
33287;SDS011;19657;50.452;30.372;2024-01-11T00:48:43;66.10;;;31.60;;
33287;SDS011;19657;50.452;30.372;2024-01-11T00:51:29;72.20;;;34.20;;
33287;SDS011;19657;50.452;30.372;2024-01-11T00:54:15;70.20;;;32.60;;
33287;SDS011;19657;50.452;30.372;2024-01-11T00:57:00;73.10;;;33.50;;
33287;SDS011;19657;50.452;30.372;2024-01-11T00:59:46;70.70;;;35.50;;
33287;SDS011;19657;50.452;30.372;2024-01-11T01:02:31;71.30;;;35.40;;
33287;SDS011;19657;50.452;30.372;2024-01-11T01:05:17;70.50;;;33.80;;
33287;SDS011;19657;50.452;30.372;2024-01-11T01:08:03;71.20;;;32.00;;
33287;SDS011;19657;50.452;30.372;2024-01-11T01:10:49;69.30;;;34.80;;
33287;SDS011;19657;50.452;30.372;2024-01-11T01:13:34;71.90;;;34.50;;
33287;SDS011;19657;50.452;30.372;2024-01-11T01:16:20;67.90;;;34.70;;
33287;SDS011;19657;50.452;30.372;2024-01-11T01:19:06;60.20;;;31.30;;
33287;SDS011;19657;50.452;30.372;2024-01-11T01:21:51;66.00;;;31.60;;
33287;SDS011;19657;50.452;30.372;2024-01-11T01:24:36;66.60;;;32.80;;
33287;SDS011;19657;50.452;30.372;2024-01-11T01:27:22;65.60;;;30.70;;
33287;SDS011;19657;50.452;30.372;2024-01-11T01:30:08;63.00;;;34.00;;
33287;SDS011;19657;50.452;30.372;2024-01-11T01:32:54;71.10;;;33.40;;
33287;SDS011;19657;50.452;30.372;2024-01-11T01:35:40;63.00;;;30.60;;
33287;SDS011;19657;50.452;30.372;2024-01-11T01:38:26;64.50;;;32.10;;
33287;SDS011;19657;50.452;30.372;2024-01-11T01:41:11;67.70;;;34.50;;
33287;SDS011;19657;50.452;30.372;2024-01-11T01:43:57;70.60;;;34.40;;
33287;SDS011;19657;50.452;30.372;2024-01-11T01:46:42;66.60;;;31.40;;
33287;SDS011;19657;50.452;30.372;2024-01-11T01:49:28;58.20;;;31.00;;
33287;SDS011;19657;50.452;30.372;2024-01-11T01:52:14;68.20;;;31.70;;
33287;SDS011;19657;50.452;30.372;2024-01-11T01:55:02;61.90;;;31.20;;
33287;SDS011;19657;50.452;30.372;2024-01-11T01:57:50;67.60;;;32.70;;
33287;SDS011;19657;50.452;30.372;2024-01-11T02:00:37;65.50;;;32.50;;
33287;SDS011;19657;50.452;30.372;2024-01-11T02:03:23;62.50;;;32.50;;
33287;SDS011;19657;50.452;30.372;2024-01-11T02:06:12;67.30;;;32.80;;
33287;SDS011;19657;50.452;30.372;2024-01-11T02:09:00;60.40;;;33.10;;
33287;SDS011;19657;50.452;30.372;2024-01-11T02:11:48;59.20;;;30.80;;
33287;SDS011;19657;50.452;30.372;2024-01-11T02:14:34;66.10;;;32.00;;
33287;SDS011;19657;50.452;30.372;2024-01-11T02:17:19;70.90;;;34.30;;
33287;SDS011;19657;50.452;30.372;2024-01-11T02:20:06;65.40;;;30.80;;
33287;SDS011;19657;50.452;30.372;2024-01-11T02:22:53;69.70;;;33.30;;
33287;SDS011;19657;50.452;30.372;2024-01-11T02:25:41;67.30;;;32.70;;
33287;SDS011;19657;50.452;30.372;2024-01-11T02:28:26;63.90;;;30.80;;
33287;SDS011;19657;50.452;30.372;2024-01-11T02:31:12;68.40;;;32.50;;
33287;SDS011;19657;50.452;30.372;2024-01-11T02:33:59;69.40;;;33.90;;
33287;SDS011;19657;50.452;30.372;2024-01-11T02:36:45;59.90;;;30.10;;
33287;SDS011;19657;50.452;30.372;2024-01-11T02:39:31;65.90;;;33.30;;
33287;SDS011;19657;50.452;30.372;2024-01-11T02:42:16;61.30;;;31.40;;
33287;SDS011;19657;50.452;30.372;2024-01-11T02:45:05;66.20;;;31.30;;
33287;SDS011;19657;50.452;30.372;2024-01-11T02:47:51;59.00;;;31.40;;
33287;SDS011;19657;50.452;30.372;2024-01-11T02:50:37;63.30;;;29.00;;
33287;SDS011;19657;50.452;30.372;2024-01-11T02:53:23;60.90;;;29.70;;
33287;SDS011;19657;50.452;30.372;2024-01-11T02:56:09;59.60;;;30.10;;
33287;SDS011;19657;50.452;30.372;2024-01-11T02:58:54;64.20;;;31.70;;
33287;SDS011;19657;50.452;30.372;2024-01-11T03:01:40;70.40;;;32.10;;
33287;SDS011;19657;50.452;30.372;2024-01-11T03:04:25;61.60;;;30.60;;
33287;SDS011;19657;50.452;30.372;2024-01-11T03:07:11;63.10;;;29.80;;
33287;SDS011;19657;50.452;30.372;2024-01-11T03:09:56;66.80;;;31.40;;
33287;SDS011;19657;50.452;30.372;2024-01-11T03:12:42;65.00;;;29.50;;
33287;SDS011;19657;50.452;30.372;2024-01-11T03:15:28;67.30;;;32.30;;
33287;SDS011;19657;50.452;30.372;2024-01-11T03:18:14;61.30;;;31.50;;
33287;SDS011;19657;50.452;30.372;2024-01-11T03:20:59;65.80;;;31.50;;
33287;SDS011;19657;50.452;30.372;2024-01-11T03:23:45;58.10;;;31.00;;
33287;SDS011;19657;50.452;30.372;2024-01-11T03:26:30;63.10;;;31.00;;
33287;SDS011;19657;50.452;30.372;2024-01-11T03:29:16;63.60;;;28.90;;
33287;SDS011;19657;50.452;30.372;2024-01-11T03:32:02;64.50;;;30.20;;
33287;SDS011;19657;50.452;30.372;2024-01-11T03:34:47;63.50;;;29.30;;
33287;SDS011;19657;50.452;30.372;2024-01-11T03:37:33;64.20;;;29.70;;
33287;SDS011;19657;50.452;30.372;2024-01-11T03:40:18;63.90;;;30.40;;
33287;SDS011;19657;50.452;30.372;2024-01-11T03:43:03;57.00;;;28.60;;
33287;SDS011;19657;50.452;30.372;2024-01-11T03:45:49;66.00;;;30.70;;
33287;SDS011;19657;50.452;30.372;2024-01-11T03:48:34;59.50;;;29.00;;
33287;SDS011;19657;50.452;30.372;2024-01-11T03:51:23;58.80;;;27.40;;
33287;SDS011;19657;50.452;30.372;2024-01-11T03:54:09;57.00;;;28.70;;
33287;SDS011;19657;50.452;30.372;2024-01-11T03:56:54;59.60;;;29.60;;
33287;SDS011;19657;50.452;30.372;2024-01-11T03:59:40;58.30;;;29.40;;
33287;SDS011;19657;50.452;30.372;2024-01-11T04:02:26;54.60;;;27.70;;
33287;SDS011;19657;50.452;30.372;2024-01-11T04:05:11;60.70;;;29.40;;
33287;SDS011;19657;50.452;30.372;2024-01-11T04:07:57;58.70;;;29.20;;
33287;SDS011;19657;50.452;30.372;2024-01-11T04:10:43;59.40;;;28.80;;
33287;SDS011;19657;50.452;30.372;2024-01-11T04:13:29;58.90;;;28.30;;
33287;SDS011;19657;50.452;30.372;2024-01-11T04:16:14;57.90;;;29.10;;
33287;SDS011;19657;50.452;30.372;2024-01-11T04:19:00;54.50;;;28.30;;
33287;SDS011;19657;50.452;30.372;2024-01-11T04:21:46;54.90;;;27.00;;
33287;SDS011;19657;50.452;30.372;2024-01-11T04:24:31;52.20;;;26.60;;
33287;SDS011;19657;50.452;30.372;2024-01-11T04:27:17;61.40;;;28.70;;
33287;SDS011;19657;50.452;30.372;2024-01-11T04:30:02;49.70;;;27.00;;
33287;SDS011;19657;50.452;30.372;2024-01-11T04:32:48;59.20;;;27.80;;
33287;SDS011;19657;50.452;30.372;2024-01-11T04:35:34;53.50;;;26.30;;
33287;SDS011;19657;50.452;30.372;2024-01-11T04:38:20;61.10;;;28.20;;
33287;SDS011;19657;50.452;30.372;2024-01-11T04:41:09;62.90;;;28.50;;
33287;SDS011;19657;50.452;30.372;2024-01-11T04:43:55;62.70;;;30.80;;
33287;SDS011;19657;50.452;30.372;2024-01-11T04:46:41;54.70;;;26.30;;
33287;SDS011;19657;50.452;30.372;2024-01-11T04:49:26;55.80;;;26.00;;
33287;SDS011;19657;50.452;30.372;2024-01-11T04:52:12;62.40;;;26.80;;
33287;SDS011;19657;50.452;30.372;2024-01-11T04:54:58;58.00;;;28.70;;
33287;SDS011;19657;50.452;30.372;2024-01-11T04:57:43;52.80;;;26.70;;
33287;SDS011;19657;50.452;30.372;2024-01-11T05:00:28;56.80;;;28.20;;
33287;SDS011;19657;50.452;30.372;2024-01-11T05:03:14;53.20;;;25.30;;
33287;SDS011;19657;50.452;30.372;2024-01-11T05:06:00;55.30;;;27.30;;
33287;SDS011;19657;50.452;30.372;2024-01-11T05:08:46;53.70;;;26.80;;
33287;SDS011;19657;50.452;30.372;2024-01-11T05:11:32;47.70;;;24.90;;
33287;SDS011;19657;50.452;30.372;2024-01-11T05:14:18;52.30;;;26.30;;
33287;SDS011;19657;50.452;30.372;2024-01-11T05:17:03;58.00;;;28.30;;
33287;SDS011;19657;50.452;30.372;2024-01-11T05:19:48;54.80;;;25.30;;
33287;SDS011;19657;50.452;30.372;2024-01-11T05:22:34;52.20;;;25.30;;
33287;SDS011;19657;50.452;30.372;2024-01-11T05:25:19;50.10;;;26.70;;
33287;SDS011;19657;50.452;30.372;2024-01-11T05:28:04;50.50;;;25.60;;
33287;SDS011;19657;50.452;30.372;2024-01-11T05:30:50;54.60;;;26.00;;
33287;SDS011;19657;50.452;30.372;2024-01-11T05:33:36;55.30;;;25.30;;
33287;SDS011;19657;50.452;30.372;2024-01-11T05:36:22;54.50;;;26.10;;
33287;SDS011;19657;50.452;30.372;2024-01-11T05:39:08;47.90;;;26.80;;
33287;SDS011;19657;50.452;30.372;2024-01-11T05:41:53;57.40;;;26.00;;
33287;SDS011;19657;50.452;30.372;2024-01-11T05:44:39;59.60;;;26.90;;
33287;SDS011;19657;50.452;30.372;2024-01-11T05:47:24;59.50;;;27.40;;
33287;SDS011;19657;50.452;30.372;2024-01-11T05:50:10;56.50;;;26.00;;
33287;SDS011;19657;50.452;30.372;2024-01-11T05:52:57;54.70;;;25.90;;
33287;SDS011;19657;50.452;30.372;2024-01-11T05:55:43;58.20;;;27.50;;
33287;SDS011;19657;50.452;30.372;2024-01-11T05:58:29;51.40;;;25.40;;
33287;SDS011;19657;50.452;30.372;2024-01-11T06:01:15;60.70;;;25.90;;
33287;SDS011;19657;50.452;30.372;2024-01-11T06:04:00;53.20;;;26.80;;
33287;SDS011;19657;50.452;30.372;2024-01-11T06:06:46;52.60;;;25.30;;
33287;SDS011;19657;50.452;30.372;2024-01-11T06:09:32;57.00;;;26.30;;
33287;SDS011;19657;50.452;30.372;2024-01-11T06:12:17;50.70;;;25.50;;
33287;SDS011;19657;50.452;30.372;2024-01-11T06:15:03;53.90;;;25.50;;
33287;SDS011;19657;50.452;30.372;2024-01-11T06:17:48;58.80;;;27.60;;
33287;SDS011;19657;50.452;30.372;2024-01-11T06:20:35;52.80;;;26.80;;
33287;SDS011;19657;50.452;30.372;2024-01-11T06:23:20;52.40;;;26.10;;
33287;SDS011;19657;50.452;30.372;2024-01-11T06:26:07;50.90;;;24.40;;
33287;SDS011;19657;50.452;30.372;2024-01-11T06:28:53;50.10;;;25.30;;
33287;SDS011;19657;50.452;30.372;2024-01-11T06:31:38;47.50;;;24.30;;
33287;SDS011;19657;50.452;30.372;2024-01-11T06:34:24;52.70;;;26.30;;
33287;SDS011;19657;50.452;30.372;2024-01-11T06:37:10;52.10;;;27.80;;
33287;SDS011;19657;50.452;30.372;2024-01-11T06:39:56;49.30;;;24.80;;
33287;SDS011;19657;50.452;30.372;2024-01-11T06:42:42;60.90;;;27.50;;
33287;SDS011;19657;50.452;30.372;2024-01-11T06:45:27;51.50;;;26.40;;
33287;SDS011;19657;50.452;30.372;2024-01-11T06:48:13;53.30;;;24.20;;
33287;SDS011;19657;50.452;30.372;2024-01-11T06:50:59;52.30;;;25.60;;
33287;SDS011;19657;50.452;30.372;2024-01-11T06:53:47;53.00;;;25.50;;
33287;SDS011;19657;50.452;30.372;2024-01-11T06:56:33;55.00;;;26.60;;
33287;SDS011;19657;50.452;30.372;2024-01-11T06:59:19;53.20;;;24.80;;
33287;SDS011;19657;50.452;30.372;2024-01-11T07:02:05;50.70;;;25.30;;
33287;SDS011;19657;50.452;30.372;2024-01-11T07:04:51;57.10;;;27.40;;
33287;SDS011;19657;50.452;30.372;2024-01-11T07:07:37;53.70;;;27.00;;
33287;SDS011;19657;50.452;30.372;2024-01-11T07:10:22;53.40;;;26.40;;
33287;SDS011;19657;50.452;30.372;2024-01-11T07:13:08;54.60;;;26.10;;
33287;SDS011;19657;50.452;30.372;2024-01-11T07:15:56;56.90;;;26.70;;
33287;SDS011;19657;50.452;30.372;2024-01-11T07:18:43;54.50;;;24.10;;
33287;SDS011;19657;50.452;30.372;2024-01-11T07:21:29;53.90;;;27.10;;
33287;SDS011;19657;50.452;30.372;2024-01-11T07:24:15;52.20;;;24.20;;
33287;SDS011;19657;50.452;30.372;2024-01-11T07:27:00;54.70;;;26.50;;
33287;SDS011;19657;50.452;30.372;2024-01-11T07:29:46;52.90;;;25.80;;
33287;SDS011;19657;50.452;30.372;2024-01-11T07:32:32;48.10;;;24.00;;
33287;SDS011;19657;50.452;30.372;2024-01-11T07:35:18;52.70;;;25.60;;
33287;SDS011;19657;50.452;30.372;2024-01-11T07:38:04;54.30;;;26.80;;
33287;SDS011;19657;50.452;30.372;2024-01-11T07:40:50;49.70;;;24.30;;
33287;SDS011;19657;50.452;30.372;2024-01-11T07:43:36;56.00;;;26.20;;
33287;SDS011;19657;50.452;30.372;2024-01-11T07:46:38;54.60;;;26.40;;
33287;SDS011;19657;50.452;30.372;2024-01-11T07:49:35;52.30;;;25.40;;
33287;SDS011;19657;50.452;30.372;2024-01-11T07:52:20;56.60;;;26.40;;
33287;SDS011;19657;50.452;30.372;2024-01-11T07:55:06;57.80;;;25.10;;
33287;SDS011;19657;50.452;30.372;2024-01-11T07:57:52;50.60;;;25.00;;
33287;SDS011;19657;50.452;30.372;2024-01-11T08:00:38;52.30;;;24.70;;
33287;SDS011;19657;50.452;30.372;2024-01-11T08:03:24;58.30;;;27.00;;
33287;SDS011;19657;50.452;30.372;2024-01-11T08:06:10;51.50;;;25.20;;
33287;SDS011;19657;50.452;30.372;2024-01-11T08:08:56;53.90;;;25.90;;
33287;SDS011;19657;50.452;30.372;2024-01-11T08:11:42;47.50;;;23.80;;
33287;SDS011;19657;50.452;30.372;2024-01-11T08:14:35;53.30;;;26.50;;
33287;SDS011;19657;50.452;30.372;2024-01-11T08:17:20;53.20;;;26.70;;
33287;SDS011;19657;50.452;30.372;2024-01-11T08:20:06;52.90;;;25.20;;
33287;SDS011;19657;50.452;30.372;2024-01-11T08:22:57;51.40;;;26.10;;
33287;SDS011;19657;50.452;30.372;2024-01-11T08:25:43;57.60;;;25.90;;
33287;SDS011;19657;50.452;30.372;2024-01-11T08:28:29;54.50;;;25.60;;
33287;SDS011;19657;50.452;30.372;2024-01-11T08:31:15;57.80;;;26.20;;
33287;SDS011;19657;50.452;30.372;2024-01-11T08:34:00;49.90;;;25.20;;
33287;SDS011;19657;50.452;30.372;2024-01-11T08:36:46;49.10;;;25.30;;
33287;SDS011;19657;50.452;30.372;2024-01-11T08:39:33;47.20;;;24.00;;
33287;SDS011;19657;50.452;30.372;2024-01-11T08:42:19;55.90;;;27.50;;
33287;SDS011;19657;50.452;30.372;2024-01-11T08:45:05;45.60;;;23.30;;
33287;SDS011;19657;50.452;30.372;2024-01-11T08:47:52;48.80;;;24.10;;
33287;SDS011;19657;50.452;30.372;2024-01-11T08:50:38;48.30;;;24.50;;
33287;SDS011;19657;50.452;30.372;2024-01-11T08:53:24;58.30;;;25.10;;
33287;SDS011;19657;50.452;30.372;2024-01-11T08:56:09;51.70;;;25.20;;
33287;SDS011;19657;50.452;30.372;2024-01-11T08:58:55;50.70;;;22.30;;
33287;SDS011;19657;50.452;30.372;2024-01-11T09:01:43;49.50;;;21.80;;
33287;SDS011;19657;50.452;30.372;2024-01-11T09:04:42;50.10;;;24.70;;
33287;SDS011;19657;50.452;30.372;2024-01-11T09:07:28;54.30;;;25.30;;
33287;SDS011;19657;50.452;30.372;2024-01-11T09:10:13;48.00;;;23.80;;
33287;SDS011;19657;50.452;30.372;2024-01-11T09:12:59;47.60;;;23.20;;
33287;SDS011;19657;50.452;30.372;2024-01-11T09:15:45;50.60;;;24.50;;
33287;SDS011;19657;50.452;30.372;2024-01-11T09:18:31;48.00;;;25.10;;
33287;SDS011;19657;50.452;30.372;2024-01-11T09:21:17;52.70;;;24.80;;
33287;SDS011;19657;50.452;30.372;2024-01-11T09:24:03;48.90;;;22.50;;
33287;SDS011;19657;50.452;30.372;2024-01-11T09:26:49;54.00;;;25.90;;
33287;SDS011;19657;50.452;30.372;2024-01-11T09:29:35;49.40;;;24.60;;
33287;SDS011;19657;50.452;30.372;2024-01-11T09:32:21;50.80;;;24.70;;
33287;SDS011;19657;50.452;30.372;2024-01-11T09:35:06;49.30;;;23.00;;
33287;SDS011;19657;50.452;30.372;2024-01-11T09:37:53;47.70;;;24.40;;
33287;SDS011;19657;50.452;30.372;2024-01-11T09:40:38;45.40;;;23.40;;
33287;SDS011;19657;50.452;30.372;2024-01-11T09:43:24;46.30;;;23.70;;
33287;SDS011;19657;50.452;30.372;2024-01-11T09:46:11;48.60;;;24.00;;
33287;SDS011;19657;50.452;30.372;2024-01-11T09:48:58;55.40;;;23.40;;
33287;SDS011;19657;50.452;30.372;2024-01-11T09:51:44;49.20;;;23.90;;
33287;SDS011;19657;50.452;30.372;2024-01-11T09:54:31;52.50;;;24.10;;
33287;SDS011;19657;50.452;30.372;2024-01-11T09:57:20;46.90;;;22.90;;
33287;SDS011;19657;50.452;30.372;2024-01-11T10:00:11;46.60;;;22.10;;
33287;SDS011;19657;50.452;30.372;2024-01-11T10:02:59;47.30;;;23.60;;
33287;SDS011;19657;50.452;30.372;2024-01-11T10:05:46;51.10;;;22.40;;
33287;SDS011;19657;50.452;30.372;2024-01-11T10:08:34;46.90;;;22.70;;
33287;SDS011;19657;50.452;30.372;2024-01-11T10:11:20;46.20;;;24.00;;
33287;SDS011;19657;50.452;30.372;2024-01-11T10:14:06;47.30;;;22.80;;
33287;SDS011;19657;50.452;30.372;2024-01-11T10:16:53;46.40;;;21.80;;
33287;SDS011;19657;50.452;30.372;2024-01-11T10:19:39;50.30;;;23.00;;
33287;SDS011;19657;50.452;30.372;2024-01-11T10:22:25;48.20;;;24.40;;
33287;SDS011;19657;50.452;30.372;2024-01-11T10:25:13;51.20;;;23.10;;
33287;SDS011;19657;50.452;30.372;2024-01-11T10:28:00;46.70;;;23.40;;
33287;SDS011;19657;50.452;30.372;2024-01-11T10:30:46;48.90;;;22.90;;
33287;SDS011;19657;50.452;30.372;2024-01-11T10:33:33;45.00;;;21.70;;
33287;SDS011;19657;50.452;30.372;2024-01-11T10:36:19;43.70;;;23.00;;
33287;SDS011;19657;50.452;30.372;2024-01-11T10:39:05;52.30;;;25.10;;
33287;SDS011;19657;50.452;30.372;2024-01-11T10:41:56;55.80;;;26.20;;
33287;SDS011;19657;50.452;30.372;2024-01-11T10:44:54;46.90;;;22.90;;
33287;SDS011;19657;50.452;30.372;2024-01-11T10:48:03;48.70;;;23.50;;
33287;SDS011;19657;50.452;30.372;2024-01-11T10:50:54;50.20;;;25.20;;
33287;SDS011;19657;50.452;30.372;2024-01-11T10:53:44;45.50;;;23.10;;
33287;SDS011;19657;50.452;30.372;2024-01-11T10:56:31;46.90;;;23.00;;
33287;SDS011;19657;50.452;30.372;2024-01-11T10:59:19;53.70;;;25.30;;
33287;SDS011;19657;50.452;30.372;2024-01-11T11:02:10;55.20;;;25.40;;
33287;SDS011;19657;50.452;30.372;2024-01-11T11:04:58;50.50;;;24.00;;
33287;SDS011;19657;50.452;30.372;2024-01-11T11:07:45;54.20;;;24.30;;
33287;SDS011;19657;50.452;30.372;2024-01-11T11:10:33;44.50;;;20.60;;
33287;SDS011;19657;50.452;30.372;2024-01-11T11:13:20;50.60;;;25.00;;
33287;SDS011;19657;50.452;30.372;2024-01-11T11:16:06;48.80;;;24.30;;
33287;SDS011;19657;50.452;30.372;2024-01-11T11:18:53;51.20;;;25.20;;
33287;SDS011;19657;50.452;30.372;2024-01-11T11:21:43;49.70;;;23.30;;
33287;SDS011;19657;50.452;30.372;2024-01-11T11:24:30;50.20;;;24.60;;
33287;SDS011;19657;50.452;30.372;2024-01-11T11:27:19;51.20;;;25.50;;
33287;SDS011;19657;50.452;30.372;2024-01-11T11:30:05;42.80;;;21.50;;
33287;SDS011;19657;50.452;30.372;2024-01-11T11:32:51;50.10;;;24.70;;
33287;SDS011;19657;50.452;30.372;2024-01-11T11:35:38;47.30;;;22.70;;
33287;SDS011;19657;50.452;30.372;2024-01-11T11:38:26;49.90;;;23.20;;
33287;SDS011;19657;50.452;30.372;2024-01-11T11:41:16;47.20;;;22.30;;
33287;SDS011;19657;50.452;30.372;2024-01-11T11:44:04;43.90;;;23.80;;
33287;SDS011;19657;50.452;30.372;2024-01-11T11:46:51;46.90;;;23.90;;
33287;SDS011;19657;50.452;30.372;2024-01-11T11:49:52;53.90;;;24.00;;
33287;SDS011;19657;50.452;30.372;2024-01-11T11:52:59;47.00;;;21.90;;
33287;SDS011;19657;50.452;30.372;2024-01-11T11:55:45;44.50;;;21.00;;
33287;SDS011;19657;50.452;30.372;2024-01-11T11:58:32;44.20;;;21.80;;
33287;SDS011;19657;50.452;30.372;2024-01-11T12:01:19;41.90;;;19.90;;
33287;SDS011;19657;50.452;30.372;2024-01-11T12:04:07;47.80;;;22.40;;
33287;SDS011;19657;50.452;30.372;2024-01-11T12:06:53;39.50;;;20.10;;
33287;SDS011;19657;50.452;30.372;2024-01-11T12:09:39;39.80;;;21.70;;
33287;SDS011;19657;50.452;30.372;2024-01-11T12:12:25;43.60;;;22.90;;
33287;SDS011;19657;50.452;30.372;2024-01-11T12:15:10;46.70;;;23.10;;
33287;SDS011;19657;50.452;30.372;2024-01-11T12:17:57;38.30;;;20.70;;
33287;SDS011;19657;50.452;30.372;2024-01-11T12:20:44;43.80;;;22.70;;
33287;SDS011;19657;50.452;30.372;2024-01-11T12:23:31;45.20;;;21.90;;
33287;SDS011;19657;50.452;30.372;2024-01-11T12:26:20;40.60;;;21.30;;
33287;SDS011;19657;50.452;30.372;2024-01-11T12:29:07;45.70;;;22.80;;
33287;SDS011;19657;50.452;30.372;2024-01-11T12:31:55;40.20;;;21.60;;
33287;SDS011;19657;50.452;30.372;2024-01-11T12:34:43;40.00;;;20.40;;
33287;SDS011;19657;50.452;30.372;2024-01-11T12:37:30;42.30;;;21.60;;
33287;SDS011;19657;50.452;30.372;2024-01-11T12:40:16;42.80;;;21.70;;
33287;SDS011;19657;50.452;30.372;2024-01-11T12:43:01;48.50;;;24.50;;
33287;SDS011;19657;50.452;30.372;2024-01-11T12:45:48;41.60;;;22.30;;
33287;SDS011;19657;50.452;30.372;2024-01-11T12:48:34;42.90;;;21.10;;
33287;SDS011;19657;50.452;30.372;2024-01-11T12:51:20;48.30;;;22.90;;
33287;SDS011;19657;50.452;30.372;2024-01-11T12:54:11;43.30;;;24.20;;
33287;SDS011;19657;50.452;30.372;2024-01-11T12:57:04;38.90;;;21.10;;
33287;SDS011;19657;50.452;30.372;2024-01-11T12:59:50;39.20;;;21.60;;
33287;SDS011;19657;50.452;30.372;2024-01-11T13:02:36;38.00;;;20.20;;
33287;SDS011;19657;50.452;30.372;2024-01-11T13:05:25;39.90;;;23.00;;
33287;SDS011;19657;50.452;30.372;2024-01-11T13:08:11;41.90;;;21.50;;
33287;SDS011;19657;50.452;30.372;2024-01-11T13:10:57;39.30;;;20.40;;
33287;SDS011;19657;50.452;30.372;2024-01-11T13:13:43;43.00;;;20.60;;
33287;SDS011;19657;50.452;30.372;2024-01-11T13:16:32;36.40;;;18.10;;
33287;SDS011;19657;50.452;30.372;2024-01-11T13:19:18;39.20;;;21.30;;
33287;SDS011;19657;50.452;30.372;2024-01-11T13:22:12;44.60;;;22.50;;
33287;SDS011;19657;50.452;30.372;2024-01-11T13:24:58;37.90;;;20.30;;
33287;SDS011;19657;50.452;30.372;2024-01-11T13:27:43;39.80;;;21.40;;
33287;SDS011;19657;50.452;30.372;2024-01-11T13:30:29;38.70;;;20.00;;
33287;SDS011;19657;50.452;30.372;2024-01-11T13:33:15;45.10;;;21.30;;
33287;SDS011;19657;50.452;30.372;2024-01-11T13:36:03;41.50;;;21.70;;
33287;SDS011;19657;50.452;30.372;2024-01-11T13:38:49;38.40;;;21.70;;
33287;SDS011;19657;50.452;30.372;2024-01-11T13:41:36;38.80;;;20.30;;
33287;SDS011;19657;50.452;30.372;2024-01-11T13:44:21;45.20;;;21.60;;
33287;SDS011;19657;50.452;30.372;2024-01-11T13:47:09;39.00;;;20.00;;
33287;SDS011;19657;50.452;30.372;2024-01-11T13:49:55;40.20;;;20.60;;
33287;SDS011;19657;50.452;30.372;2024-01-11T13:52:41;41.50;;;20.80;;
33287;SDS011;19657;50.452;30.372;2024-01-11T13:55:28;39.20;;;20.30;;
33287;SDS011;19657;50.452;30.372;2024-01-11T13:58:16;43.80;;;22.20;;
33287;SDS011;19657;50.452;30.372;2024-01-11T14:01:03;44.10;;;22.30;;
33287;SDS011;19657;50.452;30.372;2024-01-11T14:03:49;42.70;;;20.10;;
33287;SDS011;19657;50.452;30.372;2024-01-11T14:06:34;39.70;;;21.00;;
33287;SDS011;19657;50.452;30.372;2024-01-11T14:09:21;42.40;;;21.30;;
33287;SDS011;19657;50.452;30.372;2024-01-11T14:12:08;39.60;;;21.30;;
33287;SDS011;19657;50.452;30.372;2024-01-11T14:14:53;44.00;;;22.00;;
33287;SDS011;19657;50.452;30.372;2024-01-11T14:17:39;37.80;;;20.40;;
33287;SDS011;19657;50.452;30.372;2024-01-11T14:20:26;40.50;;;20.80;;
33287;SDS011;19657;50.452;30.372;2024-01-11T14:23:12;47.00;;;24.40;;
33287;SDS011;19657;50.452;30.372;2024-01-11T14:25:58;41.80;;;22.30;;
33287;SDS011;19657;50.452;30.372;2024-01-11T14:28:44;41.90;;;22.70;;
33287;SDS011;19657;50.452;30.372;2024-01-11T14:31:30;43.90;;;23.80;;
33287;SDS011;19657;50.452;30.372;2024-01-11T14:34:15;45.90;;;23.90;;
33287;SDS011;19657;50.452;30.372;2024-01-11T14:37:02;43.30;;;21.70;;
33287;SDS011;19657;50.452;30.372;2024-01-11T14:39:48;45.20;;;21.40;;
33287;SDS011;19657;50.452;30.372;2024-01-11T14:42:34;38.80;;;20.80;;
33287;SDS011;19657;50.452;30.372;2024-01-11T14:45:20;41.20;;;22.10;;
33287;SDS011;19657;50.452;30.372;2024-01-11T14:48:05;42.90;;;21.90;;
33287;SDS011;19657;50.452;30.372;2024-01-11T14:50:51;44.40;;;22.20;;
33287;SDS011;19657;50.452;30.372;2024-01-11T14:53:37;46.20;;;22.40;;
33287;SDS011;19657;50.452;30.372;2024-01-11T14:56:24;42.80;;;23.00;;
33287;SDS011;19657;50.452;30.372;2024-01-11T14:59:10;46.00;;;23.00;;
33287;SDS011;19657;50.452;30.372;2024-01-11T15:01:55;40.50;;;21.50;;
33287;SDS011;19657;50.452;30.372;2024-01-11T15:04:41;47.10;;;23.50;;
33287;SDS011;19657;50.452;30.372;2024-01-11T15:07:26;42.70;;;21.50;;
33287;SDS011;19657;50.452;30.372;2024-01-11T15:10:13;42.80;;;24.10;;
33287;SDS011;19657;50.452;30.372;2024-01-11T15:12:58;42.00;;;22.10;;
33287;SDS011;19657;50.452;30.372;2024-01-11T15:15:44;44.70;;;22.10;;
33287;SDS011;19657;50.452;30.372;2024-01-11T15:18:30;46.20;;;21.80;;
33287;SDS011;19657;50.452;30.372;2024-01-11T15:21:15;46.20;;;23.00;;
33287;SDS011;19657;50.452;30.372;2024-01-11T15:24:01;42.50;;;23.00;;
33287;SDS011;19657;50.452;30.372;2024-01-11T15:26:47;42.80;;;22.70;;
33287;SDS011;19657;50.452;30.372;2024-01-11T15:29:33;47.80;;;22.00;;
33287;SDS011;19657;50.452;30.372;2024-01-11T15:32:19;42.30;;;21.10;;
33287;SDS011;19657;50.452;30.372;2024-01-11T15:35:05;47.70;;;22.00;;
33287;SDS011;19657;50.452;30.372;2024-01-11T15:37:53;42.70;;;22.60;;
33287;SDS011;19657;50.452;30.372;2024-01-11T15:40:39;41.70;;;21.20;;
33287;SDS011;19657;50.452;30.372;2024-01-11T15:43:24;45.60;;;22.60;;
33287;SDS011;19657;50.452;30.372;2024-01-11T15:46:10;39.10;;;20.80;;
33287;SDS011;19657;50.452;30.372;2024-01-11T15:48:56;43.10;;;21.90;;
33287;SDS011;19657;50.452;30.372;2024-01-11T15:51:42;44.60;;;21.50;;
33287;SDS011;19657;50.452;30.372;2024-01-11T15:54:29;41.70;;;20.90;;
33287;SDS011;19657;50.452;30.372;2024-01-11T15:57:15;41.10;;;21.30;;
33287;SDS011;19657;50.452;30.372;2024-01-11T16:00:04;40.10;;;20.20;;